Burns, WY (82053)

8:11 AM MDT on September 01, 2014 (GMT -0600)
Hillsdale South Ranchettes | Change Station
CLOSE
Current Station
Personal Weather Station
Location: Carpenter, WY
Elevation: 5735 ft
Nearby Weather Stations

Elev 5735 ft 41.13 °N, 104.51 °W | Updated 44 seconds ago

Partly Cloudy
Partly Cloudy
52.2 °F
Feels Like 52.2 °F
N
6.0
Wind Variable Wind from SW
Gusts 6.0 mph

Today
High -- | Low -- °F
--% Chance of Precip.
Yesterday
High -- | Low -- °F
Precip. -- in
6:23 AM 7:29 PM
Waxing Crescent, 41% visible
Pressure 30.07 in
Visibility 10.0 miles
Clouds Clear
Dew Point 46 °F
Humidity 78%
Rainfall 0.00 in
Snow Depth Not available.
UV 1 out of 12
Pollen 9.30 out of 12
Air Quality Not available.
Flu Activity Not available.
METAR K82V 011335Z AUTO 19005KT 10SM CLR 08/07 A3007 RMK AO2

More Conditions Fewer Conditions

Pressure 30.07 in
Visibility 10.0 miles
Clouds Clear
Dew Point 46 °F
Humidity 78%
Rainfall 0.00 in
Snow Depth Not available.
UV 1 out of 12
Pollen 9.30 out of 12
Air Quality Not available.
Flu Activity Not available.
METAR K82V 011335Z AUTO 19005KT 10SM CLR 08/07 A3007 RMK AO2

More Conditions Fewer Conditions

10-Day Weather Forecast

Almanac

Astronomy

Sep. 01, 2014 Rise Set
Actual Time 6:23 AM MDT 7:29 PM MDT
Civil Twilight 5:55 AM MDT 7:58 PM MDT
Nautical Twilight 5:21 AM MDT 8:31 PM MDT
Astronomical Twilight 4:46 AM MDT 9:07 PM MDT
Moon 1:15 PM MDT 11:29 PM MDT
Length of Visible Light 14h 02m
Length of Day
13h 06m
Tomorrow will be 2m 38s shorter.
Waxing Crescent, 41% of the Moon is Illuminated
Today
Waxing Crescent
Sep 2
First Quarter
Sep 8
Full
Sep 15
Last Quarter
Sep 24
New

Today's Extremes

State Highs State Lows

Community

WunderPhotos

Upload Photos

1,749,237 photos uploaded!

Nearby

Snow Depth

Station Depth Elevation
Crow Creek 9 in 8330 ft
Whiskey Park 1 in 8950 ft
Cinnabar Park 1 in 9690 ft
Brooklyn Lake 1 in 10220 ft
Windy Peak 0 in 7900 ft

Earthquake Activity

City Distance Mag. Time & Date
No recent earthquake activity has been reported nearby.
Minimum magnitude displayed is 2.5.

Coastal Water Temperatures

Place Temperature
No Stations Reporting

Nearby Weather Stations